sensor_id;sensor_type;location;lat;lon;timestamp;P1;durP1;ratioP1;P2;durP2;ratioP2
50417;SDS011;36346;48.280;14.292;2022-12-07T00:01:39;26.91;;;26.38;;
50417;SDS011;36346;48.280;14.292;2022-12-07T00:04:09;25.86;;;25.68;;
50417;SDS011;36346;48.280;14.292;2022-12-07T00:06:40;25.56;;;25.10;;
50417;SDS011;36346;48.280;14.292;2022-12-07T00:09:11;26.38;;;25.95;;
50417;SDS011;36346;48.280;14.292;2022-12-07T00:11:41;26.72;;;26.26;;
50417;SDS011;36346;48.280;14.292;2022-12-07T00:14:11;27.10;;;26.74;;
50417;SDS011;36346;48.280;14.292;2022-12-07T00:16:41;27.48;;;26.92;;
50417;SDS011;36346;48.280;14.292;2022-12-07T00:19:11;26.69;;;26.32;;
50417;SDS011;36346;48.280;14.292;2022-12-07T00:21:40;26.31;;;25.89;;
50417;SDS011;36346;48.280;14.292;2022-12-07T00:24:09;26.99;;;26.61;;
50417;SDS011;36346;48.280;14.292;2022-12-07T00:26:39;26.18;;;25.74;;
50417;SDS011;36346;48.280;14.292;2022-12-07T00:29:20;26.19;;;25.79;;
50417;SDS011;36346;48.280;14.292;2022-12-07T00:31:49;26.22;;;25.80;;
50417;SDS011;36346;48.280;14.292;2022-12-07T00:34:18;25.43;;;25.04;;
50417;SDS011;36346;48.280;14.292;2022-12-07T00:36:48;25.43;;;24.99;;
50417;SDS011;36346;48.280;14.292;2022-12-07T00:39:16;25.59;;;25.19;;
50417;SDS011;36346;48.280;14.292;2022-12-07T00:41:44;25.76;;;25.25;;
50417;SDS011;36346;48.280;14.292;2022-12-07T00:44:12;24.88;;;24.51;;
50417;SDS011;36346;48.280;14.292;2022-12-07T00:46:40;24.82;;;24.22;;
50417;SDS011;36346;48.280;14.292;2022-12-07T00:49:08;24.15;;;23.66;;
50417;SDS011;36346;48.280;14.292;2022-12-07T00:51:36;24.41;;;24.09;;
50417;SDS011;36346;48.280;14.292;2022-12-07T00:54:04;25.14;;;24.75;;
50417;SDS011;36346;48.280;14.292;2022-12-07T00:56:32;26.41;;;25.95;;
50417;SDS011;36346;48.280;14.292;2022-12-07T00:59:01;24.39;;;24.00;;
50417;SDS011;36346;48.280;14.292;2022-12-07T01:01:31;24.02;;;23.73;;
50417;SDS011;36346;48.280;14.292;2022-12-07T01:04:02;22.81;;;22.41;;
50417;SDS011;36346;48.280;14.292;2022-12-07T01:06:30;22.34;;;22.01;;
50417;SDS011;36346;48.280;14.292;2022-12-07T01:08:58;21.66;;;21.39;;
50417;SDS011;36346;48.280;14.292;2022-12-07T01:11:28;22.64;;;22.28;;
50417;SDS011;36346;48.280;14.292;2022-12-07T01:13:57;21.98;;;21.58;;
50417;SDS011;36346;48.280;14.292;2022-12-07T01:16:27;21.94;;;21.52;;
50417;SDS011;36346;48.280;14.292;2022-12-07T01:18:58;21.15;;;20.84;;
50417;SDS011;36346;48.280;14.292;2022-12-07T01:21:30;21.08;;;20.81;;
50417;SDS011;36346;48.280;14.292;2022-12-07T01:24:06;21.72;;;21.42;;
50417;SDS011;36346;48.280;14.292;2022-12-07T01:26:37;20.97;;;20.52;;
50417;SDS011;36346;48.280;14.292;2022-12-07T01:29:05;20.80;;;20.51;;
50417;SDS011;36346;48.280;14.292;2022-12-07T01:31:33;20.59;;;20.19;;
50417;SDS011;36346;48.280;14.292;2022-12-07T01:34:01;19.99;;;19.67;;
50417;SDS011;36346;48.280;14.292;2022-12-07T01:36:34;20.23;;;20.00;;
50417;SDS011;36346;48.280;14.292;2022-12-07T01:39:04;19.41;;;19.21;;
50417;SDS011;36346;48.280;14.292;2022-12-07T01:41:35;18.84;;;18.57;;
50417;SDS011;36346;48.280;14.292;2022-12-07T01:46:52;19.16;;;18.91;;
50417;SDS011;36346;48.280;14.292;2022-12-07T01:54:47;17.87;;;17.70;;
50417;SDS011;36346;48.280;14.292;2022-12-07T01:57:19;18.37;;;18.22;;
50417;SDS011;36346;48.280;14.292;2022-12-07T01:59:48;18.35;;;18.22;;
50417;SDS011;36346;48.280;14.292;2022-12-07T02:02:20;18.36;;;18.13;;
50417;SDS011;36346;48.280;14.292;2022-12-07T02:04:53;18.14;;;17.98;;
50417;SDS011;36346;48.280;14.292;2022-12-07T02:07:23;17.95;;;17.77;;
50417;SDS011;36346;48.280;14.292;2022-12-07T02:09:51;17.64;;;17.60;;
50417;SDS011;36346;48.280;14.292;2022-12-07T02:12:19;17.95;;;17.72;;
50417;SDS011;36346;48.280;14.292;2022-12-07T02:14:48;17.49;;;17.31;;
50417;SDS011;36346;48.280;14.292;2022-12-07T02:17:24;16.70;;;16.58;;
50417;SDS011;36346;48.280;14.292;2022-12-07T02:28:34;15.47;;;15.29;;
50417;SDS011;36346;48.280;14.292;2022-12-07T02:31:18;16.42;;;16.17;;
50417;SDS011;36346;48.280;14.292;2022-12-07T02:33:51;16.15;;;16.05;;
50417;SDS011;36346;48.280;14.292;2022-12-07T02:36:27;15.76;;;15.64;;
50417;SDS011;36346;48.280;14.292;2022-12-07T02:39:00;14.89;;;14.83;;
50417;SDS011;36346;48.280;14.292;2022-12-07T02:41:36;14.73;;;14.67;;
50417;SDS011;36346;48.280;14.292;2022-12-07T02:44:27;15.06;;;15.06;;
50417;SDS011;36346;48.280;14.292;2022-12-07T02:47:03;14.56;;;14.50;;
50417;SDS011;36346;48.280;14.292;2022-12-07T02:49:36;14.29;;;14.14;;
50417;SDS011;36346;48.280;14.292;2022-12-07T02:52:07;14.30;;;14.26;;
50417;SDS011;36346;48.280;14.292;2022-12-07T02:54:35;14.86;;;14.72;;
50417;SDS011;36346;48.280;14.292;2022-12-07T03:00:25;14.85;;;14.76;;
50417;SDS011;36346;48.280;14.292;2022-12-07T03:02:55;13.82;;;13.78;;
50417;SDS011;36346;48.280;14.292;2022-12-07T03:05:36;13.13;;;13.11;;
50417;SDS011;36346;48.280;14.292;2022-12-07T03:11:43;12.08;;;12.08;;
50417;SDS011;36346;48.280;14.292;2022-12-07T03:14:18;12.23;;;12.22;;
50417;SDS011;36346;48.280;14.292;2022-12-07T03:16:55;12.50;;;12.50;;
50417;SDS011;36346;48.280;14.292;2022-12-07T03:19:29;12.64;;;12.50;;
50417;SDS011;36346;48.280;14.292;2022-12-07T03:22:00;11.82;;;11.81;;
50417;SDS011;36346;48.280;14.292;2022-12-07T03:24:33;11.84;;;11.83;;
50417;SDS011;36346;48.280;14.292;2022-12-07T03:27:21;12.49;;;12.41;;
50417;SDS011;36346;48.280;14.292;2022-12-07T03:29:54;11.84;;;11.84;;
50417;SDS011;36346;48.280;14.292;2022-12-07T03:35:23;11.46;;;11.35;;
50417;SDS011;36346;48.280;14.292;2022-12-07T03:40:35;12.07;;;12.07;;
50417;SDS011;36346;48.280;14.292;2022-12-07T03:43:08;11.54;;;11.51;;
50417;SDS011;36346;48.280;14.292;2022-12-07T03:45:38;11.91;;;11.76;;
50417;SDS011;36346;48.280;14.292;2022-12-07T03:51:11;11.40;;;11.32;;
50417;SDS011;36346;48.280;14.292;2022-12-07T03:53:49;11.19;;;11.18;;
50417;SDS011;36346;48.280;14.292;2022-12-07T03:56:24;11.04;;;11.03;;
50417;SDS011;36346;48.280;14.292;2022-12-07T03:58:55;11.52;;;11.51;;
50417;SDS011;36346;48.280;14.292;2022-12-07T04:01:23;11.53;;;11.53;;
50417;SDS011;36346;48.280;14.292;2022-12-07T04:03:51;12.36;;;12.36;;
50417;SDS011;36346;48.280;14.292;2022-12-07T04:06:19;11.96;;;11.96;;
50417;SDS011;36346;48.280;14.292;2022-12-07T04:08:47;11.42;;;11.42;;
50417;SDS011;36346;48.280;14.292;2022-12-07T04:11:15;14.00;;;13.89;;
50417;SDS011;36346;48.280;14.292;2022-12-07T04:13:43;16.79;;;16.63;;
50417;SDS011;36346;48.280;14.292;2022-12-07T04:16:29;13.79;;;13.61;;
50417;SDS011;36346;48.280;14.292;2022-12-07T04:18:58;13.67;;;13.52;;
50417;SDS011;36346;48.280;14.292;2022-12-07T04:21:26;12.88;;;12.73;;
50417;SDS011;36346;48.280;14.292;2022-12-07T04:23:54;13.98;;;13.94;;
50417;SDS011;36346;48.280;14.292;2022-12-07T04:26:22;12.96;;;12.95;;
50417;SDS011;36346;48.280;14.292;2022-12-07T04:28:50;13.89;;;13.87;;
50417;SDS011;36346;48.280;14.292;2022-12-07T04:31:18;13.05;;;13.02;;
50417;SDS011;36346;48.280;14.292;2022-12-07T04:33:46;11.68;;;11.68;;
50417;SDS011;36346;48.280;14.292;2022-12-07T04:36:14;11.66;;;11.62;;
50417;SDS011;36346;48.280;14.292;2022-12-07T04:38:42;12.20;;;12.19;;
50417;SDS011;36346;48.280;14.292;2022-12-07T04:41:10;13.19;;;13.13;;
50417;SDS011;36346;48.280;14.292;2022-12-07T04:43:37;14.18;;;14.05;;
50417;SDS011;36346;48.280;14.292;2022-12-07T04:46:24;12.63;;;12.53;;
50417;SDS011;36346;48.280;14.292;2022-12-07T04:49:12;14.70;;;14.49;;
50417;SDS011;36346;48.280;14.292;2022-12-07T04:52:00;13.37;;;13.32;;
50417;SDS011;36346;48.280;14.292;2022-12-07T04:54:28;12.79;;;12.72;;
50417;SDS011;36346;48.280;14.292;2022-12-07T04:56:56;13.08;;;13.00;;
50417;SDS011;36346;48.280;14.292;2022-12-07T04:59:24;12.28;;;12.27;;
50417;SDS011;36346;48.280;14.292;2022-12-07T05:01:52;13.30;;;13.17;;
50417;SDS011;36346;48.280;14.292;2022-12-07T05:04:20;12.10;;;12.01;;
50417;SDS011;36346;48.280;14.292;2022-12-07T05:06:48;14.02;;;13.75;;
50417;SDS011;36346;48.280;14.292;2022-12-07T05:09:16;13.39;;;13.32;;
50417;SDS011;36346;48.280;14.292;2022-12-07T05:11:43;12.45;;;12.42;;
50417;SDS011;36346;48.280;14.292;2022-12-07T05:14:18;12.49;;;12.48;;
50417;SDS011;36346;48.280;14.292;2022-12-07T05:16:49;12.40;;;12.40;;
50417;SDS011;36346;48.280;14.292;2022-12-07T05:19:18;13.61;;;13.61;;
50417;SDS011;36346;48.280;14.292;2022-12-07T05:21:46;14.04;;;13.98;;
50417;SDS011;36346;48.280;14.292;2022-12-07T05:24:15;12.73;;;12.64;;
50417;SDS011;36346;48.280;14.292;2022-12-07T05:26:44;12.92;;;12.91;;
50417;SDS011;36346;48.280;14.292;2022-12-07T05:29:13;12.35;;;12.34;;
50417;SDS011;36346;48.280;14.292;2022-12-07T05:31:43;11.81;;;11.81;;
50417;SDS011;36346;48.280;14.292;2022-12-07T05:34:12;12.47;;;12.41;;
50417;SDS011;36346;48.280;14.292;2022-12-07T05:36:40;13.07;;;12.84;;
50417;SDS011;36346;48.280;14.292;2022-12-07T05:39:08;12.49;;;12.43;;
50417;SDS011;36346;48.280;14.292;2022-12-07T05:41:36;12.35;;;12.35;;
50417;SDS011;36346;48.280;14.292;2022-12-07T05:44:23;12.36;;;12.36;;
50417;SDS011;36346;48.280;14.292;2022-12-07T05:46:51;13.80;;;13.69;;
50417;SDS011;36346;48.280;14.292;2022-12-07T05:49:20;13.59;;;13.43;;
50417;SDS011;36346;48.280;14.292;2022-12-07T05:51:48;14.34;;;14.28;;
50417;SDS011;36346;48.280;14.292;2022-12-07T05:54:16;13.25;;;13.17;;
50417;SDS011;36346;48.280;14.292;2022-12-07T05:56:44;13.04;;;12.89;;
50417;SDS011;36346;48.280;14.292;2022-12-07T05:59:12;13.75;;;13.73;;
50417;SDS011;36346;48.280;14.292;2022-12-07T06:01:59;14.21;;;14.14;;
50417;SDS011;36346;48.280;14.292;2022-12-07T06:04:41;14.34;;;14.26;;
50417;SDS011;36346;48.280;14.292;2022-12-07T06:07:13;14.73;;;14.68;;
50417;SDS011;36346;48.280;14.292;2022-12-07T06:09:42;14.40;;;14.38;;
50417;SDS011;36346;48.280;14.292;2022-12-07T06:12:11;14.17;;;14.15;;
50417;SDS011;36346;48.280;14.292;2022-12-07T06:15:16;14.17;;;14.07;;
50417;SDS011;36346;48.280;14.292;2022-12-07T06:17:44;14.37;;;14.31;;
50417;SDS011;36346;48.280;14.292;2022-12-07T06:20:12;14.04;;;13.95;;
50417;SDS011;36346;48.280;14.292;2022-12-07T06:22:40;14.45;;;14.33;;
50417;SDS011;36346;48.280;14.292;2022-12-07T06:25:08;19.58;;;19.41;;
50417;SDS011;36346;48.280;14.292;2022-12-07T06:27:37;16.48;;;16.44;;
50417;SDS011;36346;48.280;14.292;2022-12-07T06:30:05;14.33;;;14.27;;
50417;SDS011;36346;48.280;14.292;2022-12-07T06:32:35;14.00;;;13.90;;
50417;SDS011;36346;48.280;14.292;2022-12-07T06:35:04;14.34;;;14.33;;
50417;SDS011;36346;48.280;14.292;2022-12-07T06:37:32;14.30;;;14.30;;
50417;SDS011;36346;48.280;14.292;2022-12-07T06:40:00;14.38;;;14.38;;
50417;SDS011;36346;48.280;14.292;2022-12-07T06:42:29;14.72;;;14.55;;
50417;SDS011;36346;48.280;14.292;2022-12-07T06:44:57;14.96;;;14.90;;
50417;SDS011;36346;48.280;14.292;2022-12-07T06:47:25;14.58;;;14.52;;
50417;SDS011;36346;48.280;14.292;2022-12-07T06:50:13;14.88;;;14.88;;
50417;SDS011;36346;48.280;14.292;2022-12-07T06:52:41;14.57;;;14.52;;
50417;SDS011;36346;48.280;14.292;2022-12-07T06:55:09;15.21;;;15.00;;
50417;SDS011;36346;48.280;14.292;2022-12-07T06:57:37;15.36;;;15.20;;
50417;SDS011;36346;48.280;14.292;2022-12-07T07:00:05;15.41;;;15.22;;
50417;SDS011;36346;48.280;14.292;2022-12-07T07:02:34;15.50;;;15.49;;
50417;SDS011;36346;48.280;14.292;2022-12-07T07:05:02;16.22;;;16.20;;
50417;SDS011;36346;48.280;14.292;2022-12-07T07:07:31;16.36;;;16.34;;
50417;SDS011;36346;48.280;14.292;2022-12-07T07:10:18;16.79;;;16.52;;
50417;SDS011;36346;48.280;14.292;2022-12-07T07:12:46;16.66;;;16.53;;
50417;SDS011;36346;48.280;14.292;2022-12-07T07:15:20;16.85;;;16.68;;
50417;SDS011;36346;48.280;14.292;2022-12-07T07:17:48;16.40;;;16.36;;
50417;SDS011;36346;48.280;14.292;2022-12-07T07:20:16;16.99;;;16.67;;
50417;SDS011;36346;48.280;14.292;2022-12-07T07:22:45;17.15;;;16.85;;
50417;SDS011;36346;48.280;14.292;2022-12-07T07:25:13;16.38;;;16.33;;
50417;SDS011;36346;48.280;14.292;2022-12-07T07:27:41;17.41;;;17.31;;
50417;SDS011;36346;48.280;14.292;2022-12-07T07:30:09;17.09;;;16.93;;
50417;SDS011;36346;48.280;14.292;2022-12-07T07:32:37;17.45;;;17.30;;
50417;SDS011;36346;48.280;14.292;2022-12-07T07:35:05;17.10;;;16.96;;
50417;SDS011;36346;48.280;14.292;2022-12-07T07:37:34;18.15;;;17.83;;
50417;SDS011;36346;48.280;14.292;2022-12-07T07:40:02;17.35;;;17.12;;
50417;SDS011;36346;48.280;14.292;2022-12-07T07:42:30;16.95;;;16.85;;
50417;SDS011;36346;48.280;14.292;2022-12-07T07:44:58;17.35;;;17.03;;
50417;SDS011;36346;48.280;14.292;2022-12-07T07:47:26;17.19;;;16.94;;
50417;SDS011;36346;48.280;14.292;2022-12-07T07:49:54;17.01;;;16.88;;
50417;SDS011;36346;48.280;14.292;2022-12-07T07:52:22;16.65;;;16.58;;
50417;SDS011;36346;48.280;14.292;2022-12-07T07:54:50;17.11;;;16.96;;
50417;SDS011;36346;48.280;14.292;2022-12-07T07:57:18;17.04;;;16.74;;
50417;SDS011;36346;48.280;14.292;2022-12-07T07:59:46;17.16;;;16.86;;
50417;SDS011;36346;48.280;14.292;2022-12-07T08:02:15;16.67;;;16.41;;
50417;SDS011;36346;48.280;14.292;2022-12-07T08:04:46;16.23;;;16.20;;
50417;SDS011;36346;48.280;14.292;2022-12-07T08:07:14;16.74;;;16.51;;
50417;SDS011;36346;48.280;14.292;2022-12-07T08:09:43;16.24;;;16.08;;
50417;SDS011;36346;48.280;14.292;2022-12-07T08:12:11;16.33;;;16.14;;
50417;SDS011;36346;48.280;14.292;2022-12-07T08:14:39;16.10;;;15.89;;
50417;SDS011;36346;48.280;14.292;2022-12-07T08:17:07;16.19;;;16.11;;
50417;SDS011;36346;48.280;14.292;2022-12-07T08:19:35;16.43;;;16.33;;
50417;SDS011;36346;48.280;14.292;2022-12-07T08:22:03;17.46;;;17.17;;
50417;SDS011;36346;48.280;14.292;2022-12-07T08:24:34;16.87;;;16.66;;
50417;SDS011;36346;48.280;14.292;2022-12-07T08:27:03;16.88;;;16.73;;
50417;SDS011;36346;48.280;14.292;2022-12-07T08:29:31;17.43;;;17.25;;
50417;SDS011;36346;48.280;14.292;2022-12-07T08:31:59;17.27;;;17.02;;
50417;SDS011;36346;48.280;14.292;2022-12-07T08:34:36;16.92;;;16.76;;
50417;SDS011;36346;48.280;14.292;2022-12-07T08:37:04;17.13;;;16.89;;
50417;SDS011;36346;48.280;14.292;2022-12-07T08:39:32;17.29;;;17.05;;
50417;SDS011;36346;48.280;14.292;2022-12-07T08:42:00;16.79;;;16.54;;
50417;SDS011;36346;48.280;14.292;2022-12-07T08:44:30;17.55;;;17.48;;
50417;SDS011;36346;48.280;14.292;2022-12-07T08:46:59;17.51;;;17.21;;
50417;SDS011;36346;48.280;14.292;2022-12-07T08:49:31;17.47;;;17.23;;
50417;SDS011;36346;48.280;14.292;2022-12-07T08:52:04;17.12;;;16.90;;
50417;SDS011;36346;48.280;14.292;2022-12-07T08:54:33;17.87;;;17.55;;
50417;SDS011;36346;48.280;14.292;2022-12-07T08:57:04;17.89;;;17.53;;
50417;SDS011;36346;48.280;14.292;2022-12-07T08:59:34;17.50;;;17.24;;
50417;SDS011;36346;48.280;14.292;2022-12-07T09:02:04;18.38;;;18.01;;
50417;SDS011;36346;48.280;14.292;2022-12-07T09:04:33;17.72;;;17.57;;
50417;SDS011;36346;48.280;14.292;2022-12-07T09:07:01;17.78;;;17.56;;
50417;SDS011;36346;48.280;14.292;2022-12-07T09:09:29;18.54;;;18.19;;
50417;SDS011;36346;48.280;14.292;2022-12-07T09:11:57;19.06;;;18.68;;
50417;SDS011;36346;48.280;14.292;2022-12-07T09:14:25;18.59;;;18.28;;
50417;SDS011;36346;48.280;14.292;2022-12-07T09:16:53;19.42;;;19.03;;
50417;SDS011;36346;48.280;14.292;2022-12-07T09:19:21;19.24;;;19.01;;
50417;SDS011;36346;48.280;14.292;2022-12-07T09:21:49;18.83;;;18.58;;
50417;SDS011;36346;48.280;14.292;2022-12-07T09:24:17;19.39;;;18.86;;
50417;SDS011;36346;48.280;14.292;2022-12-07T09:26:45;18.37;;;18.27;;
50417;SDS011;36346;48.280;14.292;2022-12-07T09:29:13;20.42;;;20.01;;
50417;SDS011;36346;48.280;14.292;2022-12-07T09:31:41;20.70;;;20.22;;
50417;SDS011;36346;48.280;14.292;2022-12-07T09:34:09;19.57;;;19.25;;
50417;SDS011;36346;48.280;14.292;2022-12-07T09:36:37;19.13;;;18.82;;
50417;SDS011;36346;48.280;14.292;2022-12-07T09:39:06;19.11;;;18.67;;
50417;SDS011;36346;48.280;14.292;2022-12-07T09:41:37;18.40;;;18.05;;
50417;SDS011;36346;48.280;14.292;2022-12-07T09:44:11;18.14;;;17.67;;
50417;SDS011;36346;48.280;14.292;2022-12-07T09:46:42;18.43;;;17.99;;
50417;SDS011;36346;48.280;14.292;2022-12-07T09:49:18;18.88;;;18.46;;
50417;SDS011;36346;48.280;14.292;2022-12-07T09:51:57;18.34;;;18.03;;
50417;SDS011;36346;48.280;14.292;2022-12-07T09:54:30;19.41;;;19.00;;
50417;SDS011;36346;48.280;14.292;2022-12-07T09:56:59;17.48;;;17.44;;
50417;SDS011;36346;48.280;14.292;2022-12-07T09:59:27;18.75;;;18.43;;
50417;SDS011;36346;48.280;14.292;2022-12-07T10:02:19;19.04;;;18.57;;
50417;SDS011;36346;48.280;14.292;2022-12-07T10:04:52;18.26;;;18.20;;
50417;SDS011;36346;48.280;14.292;2022-12-07T10:07:22;19.78;;;19.44;;
50417;SDS011;36346;48.280;14.292;2022-12-07T10:09:50;20.31;;;20.03;;
50417;SDS011;36346;48.280;14.292;2022-12-07T10:12:18;20.29;;;20.08;;
50417;SDS011;36346;48.280;14.292;2022-12-07T10:14:54;19.64;;;19.43;;
50417;SDS011;36346;48.280;14.292;2022-12-07T10:17:36;20.16;;;19.62;;
50417;SDS011;36346;48.280;14.292;2022-12-07T10:22:52;19.47;;;19.21;;
50417;SDS011;36346;48.280;14.292;2022-12-07T10:25:24;20.24;;;19.56;;
50417;SDS011;36346;48.280;14.292;2022-12-07T10:30:46;19.60;;;19.31;;
50417;SDS011;36346;48.280;14.292;2022-12-07T10:35:57;19.83;;;19.62;;
50417;SDS011;36346;48.280;14.292;2022-12-07T10:38:26;19.37;;;19.04;;
50417;SDS011;36346;48.280;14.292;2022-12-07T10:41:02;19.67;;;19.22;;
50417;SDS011;36346;48.280;14.292;2022-12-07T10:43:32;20.14;;;19.85;;
50417;SDS011;36346;48.280;14.292;2022-12-07T10:49:02;20.69;;;20.32;;
50417;SDS011;36346;48.280;14.292;2022-12-07T10:51:58;20.22;;;19.88;;
50417;SDS011;36346;48.280;14.292;2022-12-07T11:00:01;21.09;;;20.61;;
50417;SDS011;36346;48.280;14.292;2022-12-07T11:10:58;18.68;;;18.39;;
50417;SDS011;36346;48.280;14.292;2022-12-07T11:16:05;18.00;;;17.82;;
50417;SDS011;36346;48.280;14.292;2022-12-07T11:27:38;17.09;;;16.97;;
50417;SDS011;36346;48.280;14.292;2022-12-07T11:30:13;16.59;;;16.37;;
50417;SDS011;36346;48.280;14.292;2022-12-07T11:38:23;15.93;;;15.91;;
50417;SDS011;36346;48.280;14.292;2022-12-07T11:41:10;16.59;;;16.45;;
50417;SDS011;36346;48.280;14.292;2022-12-07T11:43:52;18.84;;;18.60;;
50417;SDS011;36346;48.280;14.292;2022-12-07T11:46:25;16.46;;;16.35;;
50417;SDS011;36346;48.280;14.292;2022-12-07T11:49:04;15.60;;;15.42;;
50417;SDS011;36346;48.280;14.292;2022-12-07T11:52:04;17.26;;;16.94;;
50417;SDS011;36346;48.280;14.292;2022-12-07T11:54:45;17.85;;;17.47;;
50417;SDS011;36346;48.280;14.292;2022-12-07T11:57:18;18.08;;;17.88;;
50417;SDS011;36346;48.280;14.292;2022-12-07T11:59:53;16.93;;;16.80;;
50417;SDS011;36346;48.280;14.292;2022-12-07T12:05:25;17.78;;;17.58;;
50417;SDS011;36346;48.280;14.292;2022-12-07T12:08:11;18.71;;;18.40;;
50417;SDS011;36346;48.280;14.292;2022-12-07T12:19:33;15.98;;;15.88;;
50417;SDS011;36346;48.280;14.292;2022-12-07T12:22:10;14.50;;;14.31;;
50417;SDS011;36346;48.280;14.292;2022-12-07T12:24:46;15.43;;;15.07;;
50417;SDS011;36346;48.280;14.292;2022-12-07T12:27:35;15.52;;;15.26;;
50417;SDS011;36346;48.280;14.292;2022-12-07T12:30:23;14.58;;;14.48;;
50417;SDS011;36346;48.280;14.292;2022-12-07T12:32:54;14.66;;;14.35;;
50417;SDS011;36346;48.280;14.292;2022-12-07T12:35:32;14.89;;;14.48;;
50417;SDS011;36346;48.280;14.292;2022-12-07T12:40:54;15.18;;;15.00;;
50417;SDS011;36346;48.280;14.292;2022-12-07T12:43:42;14.96;;;14.75;;
50417;SDS011;36346;48.280;14.292;2022-12-07T12:49:41;16.29;;;15.96;;
50417;SDS011;36346;48.280;14.292;2022-12-07T12:54:19;16.56;;;16.19;;
50417;SDS011;36346;48.280;14.292;2022-12-07T12:59:28;16.22;;;15.79;;
50417;SDS011;36346;48.280;14.292;2022-12-07T13:05:31;17.43;;;17.05;;
50417;SDS011;36346;48.280;14.292;2022-12-07T13:13:01;17.57;;;17.36;;
50417;SDS011;36346;48.280;14.292;2022-12-07T13:15:50;17.81;;;17.56;;
50417;SDS011;36346;48.280;14.292;2022-12-07T13:31:44;17.37;;;17.03;;
50417;SDS011;36346;48.280;14.292;2022-12-07T13:39:45;14.51;;;14.17;;
50417;SDS011;36346;48.280;14.292;2022-12-07T13:42:25;15.12;;;14.84;;
50417;SDS011;36346;48.280;14.292;2022-12-07T13:45:16;13.42;;;13.24;;
50417;SDS011;36346;48.280;14.292;2022-12-07T13:47:53;13.80;;;13.53;;
50417;SDS011;36346;48.280;14.292;2022-12-07T13:50:26;13.50;;;13.17;;
50417;SDS011;36346;48.280;14.292;2022-12-07T13:53:00;14.01;;;13.78;;
50417;SDS011;36346;48.280;14.292;2022-12-07T13:55:29;13.95;;;13.63;;
50417;SDS011;36346;48.280;14.292;2022-12-07T13:57:57;14.56;;;14.24;;
50417;SDS011;36346;48.280;14.292;2022-12-07T14:00:26;14.81;;;14.73;;
50417;SDS011;36346;48.280;14.292;2022-12-07T14:03:00;15.39;;;15.08;;
50417;SDS011;36346;48.280;14.292;2022-12-07T14:05:41;15.05;;;14.77;;
50417;SDS011;36346;48.280;14.292;2022-12-07T14:10:39;16.15;;;15.84;;
50417;SDS011;36346;48.280;14.292;2022-12-07T14:15:50;16.63;;;16.28;;
50417;SDS011;36346;48.280;14.292;2022-12-07T14:21:17;16.42;;;16.14;;
50417;SDS011;36346;48.280;14.292;2022-12-07T14:24:01;16.07;;;15.72;;
50417;SDS011;36346;48.280;14.292;2022-12-07T14:26:59;16.50;;;16.18;;
50417;SDS011;36346;48.280;14.292;2022-12-07T14:31:56;17.60;;;17.37;;
50417;SDS011;36346;48.280;14.292;2022-12-07T14:34:26;17.09;;;16.79;;
50417;SDS011;36346;48.280;14.292;2022-12-07T14:36:54;17.80;;;17.49;;
50417;SDS011;36346;48.280;14.292;2022-12-07T14:39:22;19.61;;;19.25;;
50417;SDS011;36346;48.280;14.292;2022-12-07T14:41:50;19.13;;;18.81;;
50417;SDS011;36346;48.280;14.292;2022-12-07T14:44:19;18.44;;;17.96;;
50417;SDS011;36346;48.280;14.292;2022-12-07T14:46:52;18.36;;;17.93;;
50417;SDS011;36346;48.280;14.292;2022-12-07T14:49:40;18.77;;;18.41;;
50417;SDS011;36346;48.280;14.292;2022-12-07T14:52:11;18.43;;;18.05;;
50417;SDS011;36346;48.280;14.292;2022-12-07T14:55:11;17.68;;;17.25;;
50417;SDS011;36346;48.280;14.292;2022-12-07T14:57:50;17.19;;;17.00;;
50417;SDS011;36346;48.280;14.292;2022-12-07T15:00:18;17.65;;;17.39;;
50417;SDS011;36346;48.280;14.292;2022-12-07T15:02:48;17.73;;;17.48;;
50417;SDS011;36346;48.280;14.292;2022-12-07T15:05:17;18.11;;;17.84;;
50417;SDS011;36346;48.280;14.292;2022-12-07T15:07:46;18.09;;;17.80;;
50417;SDS011;36346;48.280;14.292;2022-12-07T15:12:51;18.16;;;17.93;;
50417;SDS011;36346;48.280;14.292;2022-12-07T15:15:19;19.18;;;18.82;;
50417;SDS011;36346;48.280;14.292;2022-12-07T15:17:47;18.97;;;18.66;;
50417;SDS011;36346;48.280;14.292;2022-12-07T15:20:15;19.63;;;19.34;;
50417;SDS011;36346;48.280;14.292;2022-12-07T15:22:44;20.41;;;20.04;;
50417;SDS011;36346;48.280;14.292;2022-12-07T15:25:13;19.77;;;19.41;;
50417;SDS011;36346;48.280;14.292;2022-12-07T15:27:41;19.40;;;19.05;;
50417;SDS011;36346;48.280;14.292;2022-12-07T15:30:09;20.65;;;20.15;;
50417;SDS011;36346;48.280;14.292;2022-12-07T15:32:37;20.20;;;19.82;;
50417;SDS011;36346;48.280;14.292;2022-12-07T15:35:06;21.17;;;20.93;;
50417;SDS011;36346;48.280;14.292;2022-12-07T15:37:34;22.71;;;22.24;;
50417;SDS011;36346;48.280;14.292;2022-12-07T15:40:02;24.79;;;24.26;;
50417;SDS011;36346;48.280;14.292;2022-12-07T15:42:35;24.56;;;24.06;;
50417;SDS011;36346;48.280;14.292;2022-12-07T15:45:04;23.92;;;23.47;;
50417;SDS011;36346;48.280;14.292;2022-12-07T15:47:35;22.31;;;22.01;;
50417;SDS011;36346;48.280;14.292;2022-12-07T15:50:25;22.02;;;21.75;;
50417;SDS011;36346;48.280;14.292;2022-12-07T15:52:53;20.26;;;19.89;;
50417;SDS011;36346;48.280;14.292;2022-12-07T15:55:21;19.54;;;19.28;;
50417;SDS011;36346;48.280;14.292;2022-12-07T15:57:49;19.28;;;18.93;;
50417;SDS011;36346;48.280;14.292;2022-12-07T16:00:17;18.79;;;18.52;;
50417;SDS011;36346;48.280;14.292;2022-12-07T16:02:45;19.07;;;18.70;;
50417;SDS011;36346;48.280;14.292;2022-12-07T16:05:13;19.10;;;18.70;;
50417;SDS011;36346;48.280;14.292;2022-12-07T16:07:41;19.07;;;18.74;;
50417;SDS011;36346;48.280;14.292;2022-12-07T16:10:09;19.43;;;19.02;;
50417;SDS011;36346;48.280;14.292;2022-12-07T16:12:37;19.95;;;19.61;;
50417;SDS011;36346;48.280;14.292;2022-12-07T16:15:06;21.89;;;21.48;;
50417;SDS011;36346;48.280;14.292;2022-12-07T16:17:34;22.41;;;22.14;;
50417;SDS011;36346;48.280;14.292;2022-12-07T16:20:03;23.59;;;23.47;;
50417;SDS011;36346;48.280;14.292;2022-12-07T16:22:31;24.28;;;23.89;;
50417;SDS011;36346;48.280;14.292;2022-12-07T16:24:59;24.08;;;23.74;;
50417;SDS011;36346;48.280;14.292;2022-12-07T16:27:28;23.95;;;23.54;;
50417;SDS011;36346;48.280;14.292;2022-12-07T16:29:56;23.39;;;23.04;;
50417;SDS011;36346;48.280;14.292;2022-12-07T16:32:23;23.18;;;22.82;;
50417;SDS011;36346;48.280;14.292;2022-12-07T16:34:51;25.32;;;24.86;;
50417;SDS011;36346;48.280;14.292;2022-12-07T16:37:19;21.80;;;21.53;;
50417;SDS011;36346;48.280;14.292;2022-12-07T16:39:47;22.11;;;21.93;;
50417;SDS011;36346;48.280;14.292;2022-12-07T16:42:15;22.39;;;22.09;;
50417;SDS011;36346;48.280;14.292;2022-12-07T16:44:43;21.86;;;21.51;;
50417;SDS011;36346;48.280;14.292;2022-12-07T16:47:11;22.34;;;21.93;;
50417;SDS011;36346;48.280;14.292;2022-12-07T16:49:39;21.83;;;21.41;;
50417;SDS011;36346;48.280;14.292;2022-12-07T16:52:07;21.96;;;21.65;;